sensor_id;sensor_type;location;lat;lon;timestamp;temperature;humidity
41876;DHT22;27555;50.808;4.402;2023-06-01T00:00:33;17.00;99.90
41876;DHT22;27555;50.808;4.402;2023-06-01T00:02:59;17.10;99.90
41876;DHT22;27555;50.808;4.402;2023-06-01T00:05:24;17.10;99.90
41876;DHT22;27555;50.808;4.402;2023-06-01T00:07:50;17.20;99.90
41876;DHT22;27555;50.808;4.402;2023-06-01T00:10:16;17.20;99.90
41876;DHT22;27555;50.808;4.402;2023-06-01T00:12:42;17.10;99.90
41876;DHT22;27555;50.808;4.402;2023-06-01T00:15:08;17.00;99.90
41876;DHT22;27555;50.808;4.402;2023-06-01T00:17:34;16.90;99.90
41876;DHT22;27555;50.808;4.402;2023-06-01T00:20:00;16.80;99.90
41876;DHT22;27555;50.808;4.402;2023-06-01T00:22:27;16.80;99.90
41876;DHT22;27555;50.808;4.402;2023-06-01T00:24:54;16.60;99.90
41876;DHT22;27555;50.808;4.402;2023-06-01T00:27:20;16.50;99.90
41876;DHT22;27555;50.808;4.402;2023-06-01T00:29:46;16.30;99.90
41876;DHT22;27555;50.808;4.402;2023-06-01T00:32:11;16.20;99.90
41876;DHT22;27555;50.808;4.402;2023-06-01T00:34:37;16.20;99.90
41876;DHT22;27555;50.808;4.402;2023-06-01T00:37:03;16.40;99.90
41876;DHT22;27555;50.808;4.402;2023-06-01T00:39:28;16.50;99.90
41876;DHT22;27555;50.808;4.402;2023-06-01T00:41:54;16.60;99.90
41876;DHT22;27555;50.808;4.402;2023-06-01T00:44:20;16.60;99.90
41876;DHT22;27555;50.808;4.402;2023-06-01T00:46:45;16.50;99.90
41876;DHT22;27555;50.808;4.402;2023-06-01T00:49:11;16.40;99.90
41876;DHT22;27555;50.808;4.402;2023-06-01T00:51:37;16.30;99.90
41876;DHT22;27555;50.808;4.402;2023-06-01T00:54:03;16.30;99.90
41876;DHT22;27555;50.808;4.402;2023-06-01T00:56:29;16.10;99.90
41876;DHT22;27555;50.808;4.402;2023-06-01T00:58:56;16.10;99.90
41876;DHT22;27555;50.808;4.402;2023-06-01T01:01:22;16.10;99.90
41876;DHT22;27555;50.808;4.402;2023-06-01T01:03:50;16.20;99.90
41876;DHT22;27555;50.808;4.402;2023-06-01T01:12:03;16.10;99.90
41876;DHT22;27555;50.808;4.402;2023-06-01T01:14:47;16.00;99.90
41876;DHT22;27555;50.808;4.402;2023-06-01T01:17:15;15.90;99.90
41876;DHT22;27555;50.808;4.402;2023-06-01T01:20:02;15.80;99.90
41876;DHT22;27555;50.808;4.402;2023-06-01T01:25:21;15.70;99.90
41876;DHT22;27555;50.808;4.402;2023-06-01T01:30:54;15.40;99.90
41876;DHT22;27555;50.808;4.402;2023-06-01T01:33:23;15.30;99.90
41876;DHT22;27555;50.808;4.402;2023-06-01T01:35:50;15.30;99.90
41876;DHT22;27555;50.808;4.402;2023-06-01T01:38:16;15.40;99.90
41876;DHT22;27555;50.808;4.402;2023-06-01T01:40:42;15.70;99.90
41876;DHT22;27555;50.808;4.402;2023-06-01T01:43:08;15.50;99.90
41876;DHT22;27555;50.808;4.402;2023-06-01T01:45:34;15.50;99.90
41876;DHT22;27555;50.808;4.402;2023-06-01T01:50:37;15.50;99.90
41876;DHT22;27555;50.808;4.402;2023-06-01T01:53:06;15.60;99.90
41876;DHT22;27555;50.808;4.402;2023-06-01T01:58:15;15.20;99.90
41876;DHT22;27555;50.808;4.402;2023-06-01T02:00:42;15.10;99.90
41876;DHT22;27555;50.808;4.402;2023-06-01T02:03:16;15.20;99.90
41876;DHT22;27555;50.808;4.402;2023-06-01T02:05:42;15.10;99.90
41876;DHT22;27555;50.808;4.402;2023-06-01T02:08:08;15.10;99.90
41876;DHT22;27555;50.808;4.402;2023-06-01T02:10:34;15.20;99.90
41876;DHT22;27555;50.808;4.402;2023-06-01T02:12:59;15.10;99.90
41876;DHT22;27555;50.808;4.402;2023-06-01T02:15:25;15.10;99.90
41876;DHT22;27555;50.808;4.402;2023-06-01T02:17:51;15.10;99.90
41876;DHT22;27555;50.808;4.402;2023-06-01T02:20:19;15.20;99.90
41876;DHT22;27555;50.808;4.402;2023-06-01T02:22:45;15.10;99.90
41876;DHT22;27555;50.808;4.402;2023-06-01T02:25:10;15.00;99.90
41876;DHT22;27555;50.808;4.402;2023-06-01T02:27:36;14.90;99.90
41876;DHT22;27555;50.808;4.402;2023-06-01T02:30:02;14.90;99.90
41876;DHT22;27555;50.808;4.402;2023-06-01T02:32:27;14.90;99.90
41876;DHT22;27555;50.808;4.402;2023-06-01T02:34:56;14.80;99.90
41876;DHT22;27555;50.808;4.402;2023-06-01T02:37:22;14.70;99.90
41876;DHT22;27555;50.808;4.402;2023-06-01T02:39:48;14.60;99.90
41876;DHT22;27555;50.808;4.402;2023-06-01T02:42:13;14.50;99.90
41876;DHT22;27555;50.808;4.402;2023-06-01T02:44:39;14.60;99.90
41876;DHT22;27555;50.808;4.402;2023-06-01T02:47:05;14.40;99.90
41876;DHT22;27555;50.808;4.402;2023-06-01T02:49:31;14.30;99.90
41876;DHT22;27555;50.808;4.402;2023-06-01T02:51:57;14.20;99.90
41876;DHT22;27555;50.808;4.402;2023-06-01T02:54:22;14.30;99.90
41876;DHT22;27555;50.808;4.402;2023-06-01T02:56:48;14.40;99.90
41876;DHT22;27555;50.808;4.402;2023-06-01T02:59:13;14.30;99.90
41876;DHT22;27555;50.808;4.402;2023-06-01T03:01:39;14.40;99.90
41876;DHT22;27555;50.808;4.402;2023-06-01T03:04:05;14.40;99.90
41876;DHT22;27555;50.808;4.402;2023-06-01T03:06:32;14.40;99.90
41876;DHT22;27555;50.808;4.402;2023-06-01T03:09:01;14.40;99.90
41876;DHT22;27555;50.808;4.402;2023-06-01T03:11:27;14.30;99.90
41876;DHT22;27555;50.808;4.402;2023-06-01T03:13:53;14.30;99.90
41876;DHT22;27555;50.808;4.402;2023-06-01T03:16:18;14.20;99.90
41876;DHT22;27555;50.808;4.402;2023-06-01T03:18:44;14.20;99.90
41876;DHT22;27555;50.808;4.402;2023-06-01T03:21:09;14.20;99.90
41876;DHT22;27555;50.808;4.402;2023-06-01T03:23:35;14.10;99.90
41876;DHT22;27555;50.808;4.402;2023-06-01T03:26:01;14.00;99.90
41876;DHT22;27555;50.808;4.402;2023-06-01T03:28:29;13.90;99.90
41876;DHT22;27555;50.808;4.402;2023-06-01T03:30:56;13.90;99.90
41876;DHT22;27555;50.808;4.402;2023-06-01T03:33:21;13.90;99.90
41876;DHT22;27555;50.808;4.402;2023-06-01T03:35:47;13.80;99.90
41876;DHT22;27555;50.808;4.402;2023-06-01T03:38:15;13.90;99.90
41876;DHT22;27555;50.808;4.402;2023-06-01T03:40:40;13.90;99.90
41876;DHT22;27555;50.808;4.402;2023-06-01T03:43:06;13.80;99.90
41876;DHT22;27555;50.808;4.402;2023-06-01T03:45:32;13.60;99.90
41876;DHT22;27555;50.808;4.402;2023-06-01T03:47:57;13.50;99.90
41876;DHT22;27555;50.808;4.402;2023-06-01T03:50:23;13.50;99.90
41876;DHT22;27555;50.808;4.402;2023-06-01T03:52:49;13.50;99.90
41876;DHT22;27555;50.808;4.402;2023-06-01T03:55:14;13.40;99.90
41876;DHT22;27555;50.808;4.402;2023-06-01T03:57:42;13.40;99.90
41876;DHT22;27555;50.808;4.402;2023-06-01T04:00:09;13.40;99.90
41876;DHT22;27555;50.808;4.402;2023-06-01T04:02:47;13.40;99.90
41876;DHT22;27555;50.808;4.402;2023-06-01T04:05:14;13.40;99.90
41876;DHT22;27555;50.808;4.402;2023-06-01T04:07:43;13.30;99.90
41876;DHT22;27555;50.808;4.402;2023-06-01T04:10:09;13.40;99.90
41876;DHT22;27555;50.808;4.402;2023-06-01T04:12:36;13.40;99.90
41876;DHT22;27555;50.808;4.402;2023-06-01T04:15:02;13.60;99.90
41876;DHT22;27555;50.808;4.402;2023-06-01T04:17:28;13.60;99.90
41876;DHT22;27555;50.808;4.402;2023-06-01T04:19:53;13.70;99.90
41876;DHT22;27555;50.808;4.402;2023-06-01T04:22:19;13.70;99.90
41876;DHT22;27555;50.808;4.402;2023-06-01T04:24:45;13.90;99.90
41876;DHT22;27555;50.808;4.402;2023-06-01T04:27:10;14.10;99.90
41876;DHT22;27555;50.808;4.402;2023-06-01T04:29:43;14.30;99.90
41876;DHT22;27555;50.808;4.402;2023-06-01T04:32:09;14.10;99.90
41876;DHT22;27555;50.808;4.402;2023-06-01T04:34:38;14.00;99.90
41876;DHT22;27555;50.808;4.402;2023-06-01T04:37:03;13.80;99.90
41876;DHT22;27555;50.808;4.402;2023-06-01T04:39:30;13.90;99.90
41876;DHT22;27555;50.808;4.402;2023-06-01T04:41:55;13.80;99.90
41876;DHT22;27555;50.808;4.402;2023-06-01T04:44:24;13.80;99.90
41876;DHT22;27555;50.808;4.402;2023-06-01T04:46:49;13.80;99.90
41876;DHT22;27555;50.808;4.402;2023-06-01T04:49:16;14.00;99.90
41876;DHT22;27555;50.808;4.402;2023-06-01T04:51:43;14.10;99.90
41876;DHT22;27555;50.808;4.402;2023-06-01T04:54:10;14.20;99.90
41876;DHT22;27555;50.808;4.402;2023-06-01T04:56:35;14.30;99.90
41876;DHT22;27555;50.808;4.402;2023-06-01T04:59:01;14.20;99.90
41876;DHT22;27555;50.808;4.402;2023-06-01T05:01:26;14.30;99.90
41876;DHT22;27555;50.808;4.402;2023-06-01T05:03:56;14.30;99.90
41876;DHT22;27555;50.808;4.402;2023-06-01T05:06:22;14.20;99.90
41876;DHT22;27555;50.808;4.402;2023-06-01T05:08:48;14.30;99.90
41876;DHT22;27555;50.808;4.402;2023-06-01T05:11:14;14.30;99.90
41876;DHT22;27555;50.808;4.402;2023-06-01T05:13:40;14.40;99.90
41876;DHT22;27555;50.808;4.402;2023-06-01T05:16:07;14.40;99.90
41876;DHT22;27555;50.808;4.402;2023-06-01T05:18:33;14.60;99.90
41876;DHT22;27555;50.808;4.402;2023-06-01T05:20:59;14.70;99.90
41876;DHT22;27555;50.808;4.402;2023-06-01T05:23:26;14.40;99.90
41876;DHT22;27555;50.808;4.402;2023-06-01T05:25:52;14.30;99.90
41876;DHT22;27555;50.808;4.402;2023-06-01T05:28:20;14.40;99.90
41876;DHT22;27555;50.808;4.402;2023-06-01T05:30:46;14.50;99.90
41876;DHT22;27555;50.808;4.402;2023-06-01T05:33:12;14.50;99.90
41876;DHT22;27555;50.808;4.402;2023-06-01T05:35:37;14.10;99.90
41876;DHT22;27555;50.808;4.402;2023-06-01T05:38:03;14.00;99.90
41876;DHT22;27555;50.808;4.402;2023-06-01T05:40:29;14.00;99.90
41876;DHT22;27555;50.808;4.402;2023-06-01T05:42:54;14.00;99.90
41876;DHT22;27555;50.808;4.402;2023-06-01T05:45:20;13.90;99.90
41876;DHT22;27555;50.808;4.402;2023-06-01T05:47:46;13.90;99.90
41876;DHT22;27555;50.808;4.402;2023-06-01T05:50:11;14.10;99.90
41876;DHT22;27555;50.808;4.402;2023-06-01T05:52:37;14.30;99.90
41876;DHT22;27555;50.808;4.402;2023-06-01T05:55:04;14.20;99.90
41876;DHT22;27555;50.808;4.402;2023-06-01T05:57:31;14.20;99.90
41876;DHT22;27555;50.808;4.402;2023-06-01T05:59:56;14.00;99.90
41876;DHT22;27555;50.808;4.402;2023-06-01T06:02:22;13.90;99.90
41876;DHT22;27555;50.808;4.402;2023-06-01T06:04:47;14.00;99.90
41876;DHT22;27555;50.808;4.402;2023-06-01T06:07:13;14.30;99.90
41876;DHT22;27555;50.808;4.402;2023-06-01T06:09:39;14.40;99.90
41876;DHT22;27555;50.808;4.402;2023-06-01T06:12:06;14.40;99.90
41876;DHT22;27555;50.808;4.402;2023-06-01T06:14:31;14.20;99.90
41876;DHT22;27555;50.808;4.402;2023-06-01T06:16:57;14.40;99.90
41876;DHT22;27555;50.808;4.402;2023-06-01T06:19:23;14.70;99.90
41876;DHT22;27555;50.808;4.402;2023-06-01T06:21:49;14.90;99.90
41876;DHT22;27555;50.808;4.402;2023-06-01T06:24:15;14.80;99.90
41876;DHT22;27555;50.808;4.402;2023-06-01T06:26:40;14.50;99.90
41876;DHT22;27555;50.808;4.402;2023-06-01T06:29:07;14.30;99.90
41876;DHT22;27555;50.808;4.402;2023-06-01T06:31:33;14.20;99.90
41876;DHT22;27555;50.808;4.402;2023-06-01T06:33:59;14.20;99.90
41876;DHT22;27555;50.808;4.402;2023-06-01T06:36:25;14.10;99.90
41876;DHT22;27555;50.808;4.402;2023-06-01T06:38:50;14.30;99.90
41876;DHT22;27555;50.808;4.402;2023-06-01T06:41:16;14.50;99.90
41876;DHT22;27555;50.808;4.402;2023-06-01T06:43:41;14.60;99.90
41876;DHT22;27555;50.808;4.402;2023-06-01T06:46:07;14.80;99.90
41876;DHT22;27555;50.808;4.402;2023-06-01T06:48:33;15.20;99.90
41876;DHT22;27555;50.808;4.402;2023-06-01T06:50:59;15.30;99.90
41876;DHT22;27555;50.808;4.402;2023-06-01T06:53:24;15.10;99.90
41876;DHT22;27555;50.808;4.402;2023-06-01T06:55:50;14.90;99.90
41876;DHT22;27555;50.808;4.402;2023-06-01T06:58:16;14.80;99.90
41876;DHT22;27555;50.808;4.402;2023-06-01T07:00:41;14.80;99.90
41876;DHT22;27555;50.808;4.402;2023-06-01T07:03:07;14.80;99.90
41876;DHT22;27555;50.808;4.402;2023-06-01T07:05:34;14.70;99.90
41876;DHT22;27555;50.808;4.402;2023-06-01T07:07:59;14.70;99.90
41876;DHT22;27555;50.808;4.402;2023-06-01T07:10:25;14.80;99.90
41876;DHT22;27555;50.808;4.402;2023-06-01T07:12:51;15.00;99.90
41876;DHT22;27555;50.808;4.402;2023-06-01T07:15:17;15.10;99.90
41876;DHT22;27555;50.808;4.402;2023-06-01T07:17:43;15.30;99.90
41876;DHT22;27555;50.808;4.402;2023-06-01T07:20:08;15.10;99.90
41876;DHT22;27555;50.808;4.402;2023-06-01T07:22:37;15.40;99.90
41876;DHT22;27555;50.808;4.402;2023-06-01T07:25:03;15.60;99.90
41876;DHT22;27555;50.808;4.402;2023-06-01T07:27:28;15.60;99.90
41876;DHT22;27555;50.808;4.402;2023-06-01T07:29:55;15.40;99.90
41876;DHT22;27555;50.808;4.402;2023-06-01T07:32:24;15.50;99.90
41876;DHT22;27555;50.808;4.402;2023-06-01T07:34:51;16.00;99.90
41876;DHT22;27555;50.808;4.402;2023-06-01T07:37:17;16.40;99.90
41876;DHT22;27555;50.808;4.402;2023-06-01T07:39:47;16.40;99.90
41876;DHT22;27555;50.808;4.402;2023-06-01T07:42:14;16.50;99.80
41876;DHT22;27555;50.808;4.402;2023-06-01T07:44:40;16.70;99.60
41876;DHT22;27555;50.808;4.402;2023-06-01T07:47:06;17.30;98.60
41876;DHT22;27555;50.808;4.402;2023-06-01T07:49:32;17.50;98.30
41876;DHT22;27555;50.808;4.402;2023-06-01T07:52:01;18.20;97.50
41876;DHT22;27555;50.808;4.402;2023-06-01T07:54:26;19.40;95.70
41876;DHT22;27555;50.808;4.402;2023-06-01T07:56:52;20.70;94.80
41876;DHT22;27555;50.808;4.402;2023-06-01T07:59:19;22.00;93.10
41876;DHT22;27555;50.808;4.402;2023-06-01T08:01:48;22.80;91.70
41876;DHT22;27555;50.808;4.402;2023-06-01T08:04:14;23.00;91.00
41876;DHT22;27555;50.808;4.402;2023-06-01T08:06:40;23.90;89.90
41876;DHT22;27555;50.808;4.402;2023-06-01T08:09:06;24.40;88.00
41876;DHT22;27555;50.808;4.402;2023-06-01T08:11:32;23.50;89.00
41876;DHT22;27555;50.808;4.402;2023-06-01T08:13:58;23.80;88.70
41876;DHT22;27555;50.808;4.402;2023-06-01T08:16:29;24.20;87.50
41876;DHT22;27555;50.808;4.402;2023-06-01T08:18:56;23.20;88.60
41876;DHT22;27555;50.808;4.402;2023-06-01T08:21:23;23.10;89.30
41876;DHT22;27555;50.808;4.402;2023-06-01T08:23:51;23.00;89.40
41876;DHT22;27555;50.808;4.402;2023-06-01T08:26:19;23.50;88.70
41876;DHT22;27555;50.808;4.402;2023-06-01T08:28:44;24.70;87.00
41876;DHT22;27555;50.808;4.402;2023-06-01T08:31:17;24.10;86.90
41876;DHT22;27555;50.808;4.402;2023-06-01T08:33:44;24.30;86.90
41876;DHT22;27555;50.808;4.402;2023-06-01T08:36:09;24.50;86.90
41876;DHT22;27555;50.808;4.402;2023-06-01T08:38:35;25.40;85.00
41876;DHT22;27555;50.808;4.402;2023-06-01T08:41:06;25.00;84.90
41876;DHT22;27555;50.808;4.402;2023-06-01T08:43:33;24.60;85.60
41876;DHT22;27555;50.808;4.402;2023-06-01T08:46:01;24.70;85.50
41876;DHT22;27555;50.808;4.402;2023-06-01T08:48:27;25.20;85.00
41876;DHT22;27555;50.808;4.402;2023-06-01T08:50:54;25.00;84.20
41876;DHT22;27555;50.808;4.402;2023-06-01T08:53:21;25.20;84.60
41876;DHT22;27555;50.808;4.402;2023-06-01T08:55:51;26.00;83.40
41876;DHT22;27555;50.808;4.402;2023-06-01T08:58:18;25.80;83.10
41876;DHT22;27555;50.808;4.402;2023-06-01T09:00:44;26.00;82.80
41876;DHT22;27555;50.808;4.402;2023-06-01T09:03:12;26.70;82.30
41876;DHT22;27555;50.808;4.402;2023-06-01T09:05:39;26.70;81.30
41876;DHT22;27555;50.808;4.402;2023-06-01T09:08:04;26.00;82.90
41876;DHT22;27555;50.808;4.402;2023-06-01T09:10:30;26.10;82.00
41876;DHT22;27555;50.808;4.402;2023-06-01T09:12:56;25.80;82.30
41876;DHT22;27555;50.808;4.402;2023-06-01T09:15:22;26.10;82.20
41876;DHT22;27555;50.808;4.402;2023-06-01T09:17:50;26.20;82.00
41876;DHT22;27555;50.808;4.402;2023-06-01T09:20:23;26.20;81.90
41876;DHT22;27555;50.808;4.402;2023-06-01T09:22:49;26.70;81.20
41876;DHT22;27555;50.808;4.402;2023-06-01T09:25:16;26.20;81.70
41876;DHT22;27555;50.808;4.402;2023-06-01T09:28:01;26.70;81.50
41876;DHT22;27555;50.808;4.402;2023-06-01T09:30:47;26.90;81.20
41876;DHT22;27555;50.808;4.402;2023-06-01T09:33:14;27.10;80.00
41876;DHT22;27555;50.808;4.402;2023-06-01T09:35:45;27.30;79.70
41876;DHT22;27555;50.808;4.402;2023-06-01T09:38:23;27.80;79.40
41876;DHT22;27555;50.808;4.402;2023-06-01T09:41:02;28.50;78.70
41876;DHT22;27555;50.808;4.402;2023-06-01T09:43:28;29.00;78.00
41876;DHT22;27555;50.808;4.402;2023-06-01T09:46:05;28.70;77.60
41876;DHT22;27555;50.808;4.402;2023-06-01T09:48:33;28.90;77.50
41876;DHT22;27555;50.808;4.402;2023-06-01T09:51:00;29.00;77.10
41876;DHT22;27555;50.808;4.402;2023-06-01T09:53:26;29.00;76.70
41876;DHT22;27555;50.808;4.402;2023-06-01T09:56:00;29.20;76.80
41876;DHT22;27555;50.808;4.402;2023-06-01T09:58:26;29.70;76.00
41876;DHT22;27555;50.808;4.402;2023-06-01T10:00:52;29.40;75.90
41876;DHT22;27555;50.808;4.402;2023-06-01T10:03:21;29.30;75.60
41876;DHT22;27555;50.808;4.402;2023-06-01T10:05:48;29.00;75.70
41876;DHT22;27555;50.808;4.402;2023-06-01T10:08:16;29.10;75.80
41876;DHT22;27555;50.808;4.402;2023-06-01T10:10:44;28.90;75.60
41876;DHT22;27555;50.808;4.402;2023-06-01T10:13:11;29.10;75.30
41876;DHT22;27555;50.808;4.402;2023-06-01T10:15:37;28.50;75.50
41876;DHT22;27555;50.808;4.402;2023-06-01T10:18:04;28.80;75.70
41876;DHT22;27555;50.808;4.402;2023-06-01T10:20:33;29.60;75.10
41876;DHT22;27555;50.808;4.402;2023-06-01T10:23:02;30.10;73.80
41876;DHT22;27555;50.808;4.402;2023-06-01T10:25:41;28.80;74.20
41876;DHT22;27555;50.808;4.402;2023-06-01T10:28:11;28.70;74.80
41876;DHT22;27555;50.808;4.402;2023-06-01T10:30:36;29.50;73.80
41876;DHT22;27555;50.808;4.402;2023-06-01T10:33:02;28.80;73.20
41876;DHT22;27555;50.808;4.402;2023-06-01T10:40:43;30.10;72.60
41876;DHT22;27555;50.808;4.402;2023-06-01T10:43:41;29.50;72.50
41876;DHT22;27555;50.808;4.402;2023-06-01T10:46:39;29.40;72.00
41876;DHT22;27555;50.808;4.402;2023-06-01T10:49:06;29.70;71.60
41876;DHT22;27555;50.808;4.402;2023-06-01T10:51:32;29.50;70.70
41876;DHT22;27555;50.808;4.402;2023-06-01T10:54:27;29.20;71.40
41876;DHT22;27555;50.808;4.402;2023-06-01T10:57:24;29.00;72.50
41876;DHT22;27555;50.808;4.402;2023-06-01T11:00:12;29.90;72.00
41876;DHT22;27555;50.808;4.402;2023-06-01T11:08:01;29.60;70.70
41876;DHT22;27555;50.808;4.402;2023-06-01T11:21:34;30.00;70.60
41876;DHT22;27555;50.808;4.402;2023-06-01T11:24:04;30.50;69.30
41876;DHT22;27555;50.808;4.402;2023-06-01T11:26:35;29.50;69.70
41876;DHT22;27555;50.808;4.402;2023-06-01T11:29:23;29.60;69.90
41876;DHT22;27555;50.808;4.402;2023-06-01T11:31:54;29.90;69.40
41876;DHT22;27555;50.808;4.402;2023-06-01T11:34:34;30.20;69.30
41876;DHT22;27555;50.808;4.402;2023-06-01T11:37:00;29.50;70.30
41876;DHT22;27555;50.808;4.402;2023-06-01T11:39:27;29.60;70.00
41876;DHT22;27555;50.808;4.402;2023-06-01T11:42:09;30.30;69.90
41876;DHT22;27555;50.808;4.402;2023-06-01T11:44:36;30.50;69.00
41876;DHT22;27555;50.808;4.402;2023-06-01T11:47:05;30.40;69.50
41876;DHT22;27555;50.808;4.402;2023-06-01T11:49:39;30.50;69.50
41876;DHT22;27555;50.808;4.402;2023-06-01T11:52:08;30.40;68.30
41876;DHT22;27555;50.808;4.402;2023-06-01T11:54:34;29.70;67.90
41876;DHT22;27555;50.808;4.402;2023-06-01T11:57:02;29.90;68.50
41876;DHT22;27555;50.808;4.402;2023-06-01T11:59:44;29.60;69.00
41876;DHT22;27555;50.808;4.402;2023-06-01T12:02:24;29.30;69.60
41876;DHT22;27555;50.808;4.402;2023-06-01T12:04:59;29.20;70.40
41876;DHT22;27555;50.808;4.402;2023-06-01T12:07:25;28.80;70.00
41876;DHT22;27555;50.808;4.402;2023-06-01T12:09:54;28.70;70.40
41876;DHT22;27555;50.808;4.402;2023-06-01T12:12:23;28.30;68.40
41876;DHT22;27555;50.808;4.402;2023-06-01T12:14:50;27.90;68.60
41876;DHT22;27555;50.808;4.402;2023-06-01T12:17:16;27.10;70.20
41876;DHT22;27555;50.808;4.402;2023-06-01T12:19:46;26.60;71.60
41876;DHT22;27555;50.808;4.402;2023-06-01T12:22:13;25.70;73.70
41876;DHT22;27555;50.808;4.402;2023-06-01T12:24:41;25.60;74.30
41876;DHT22;27555;50.808;4.402;2023-06-01T12:27:14;25.00;74.10
41876;DHT22;27555;50.808;4.402;2023-06-01T12:29:47;24.80;74.70
41876;DHT22;27555;50.808;4.402;2023-06-01T12:32:16;24.70;75.80
41876;DHT22;27555;50.808;4.402;2023-06-01T12:34:44;24.70;74.50
41876;DHT22;27555;50.808;4.402;2023-06-01T12:37:13;24.80;74.60
41876;DHT22;27555;50.808;4.402;2023-06-01T12:39:39;24.70;75.30
41876;DHT22;27555;50.808;4.402;2023-06-01T12:42:07;24.70;74.80
41876;DHT22;27555;50.808;4.402;2023-06-01T12:44:33;24.80;75.40
41876;DHT22;27555;50.808;4.402;2023-06-01T12:46:59;24.70;75.30
41876;DHT22;27555;50.808;4.402;2023-06-01T12:49:26;24.80;74.70
41876;DHT22;27555;50.808;4.402;2023-06-01T12:51:53;24.80;74.30
41876;DHT22;27555;50.808;4.402;2023-06-01T12:54:19;24.80;74.00
41876;DHT22;27555;50.808;4.402;2023-06-01T12:56:47;24.70;73.50
41876;DHT22;27555;50.808;4.402;2023-06-01T12:59:14;24.70;74.00
41876;DHT22;27555;50.808;4.402;2023-06-01T13:01:40;24.70;74.50
41876;DHT22;27555;50.808;4.402;2023-06-01T13:04:06;24.80;74.60
41876;DHT22;27555;50.808;4.402;2023-06-01T13:06:33;24.70;74.30
41876;DHT22;27555;50.808;4.402;2023-06-01T13:09:00;24.90;73.90
41876;DHT22;27555;50.808;4.402;2023-06-01T13:11:25;24.90;73.80
41876;DHT22;27555;50.808;4.402;2023-06-01T13:13:52;25.00;74.50
41876;DHT22;27555;50.808;4.402;2023-06-01T13:16:19;25.00;74.20
41876;DHT22;27555;50.808;4.402;2023-06-01T13:18:45;25.00;73.90
41876;DHT22;27555;50.808;4.402;2023-06-01T13:21:11;24.80;74.20
41876;DHT22;27555;50.808;4.402;2023-06-01T13:23:36;24.60;73.00
41876;DHT22;27555;50.808;4.402;2023-06-01T13:26:02;24.30;73.10
41876;DHT22;27555;50.808;4.402;2023-06-01T13:28:28;24.10;73.80
41876;DHT22;27555;50.808;4.402;2023-06-01T13:30:54;24.10;72.40
41876;DHT22;27555;50.808;4.402;2023-06-01T13:33:21;24.20;73.70
41876;DHT22;27555;50.808;4.402;2023-06-01T13:35:46;24.30;73.90
41876;DHT22;27555;50.808;4.402;2023-06-01T13:38:13;24.20;73.70
41876;DHT22;27555;50.808;4.402;2023-06-01T13:40:38;24.20;74.50
41876;DHT22;27555;50.808;4.402;2023-06-01T13:43:04;24.10;74.70
41876;DHT22;27555;50.808;4.402;2023-06-01T13:45:30;24.20;75.90
41876;DHT22;27555;50.808;4.402;2023-06-01T13:47:56;24.40;76.40
41876;DHT22;27555;50.808;4.402;2023-06-01T13:50:24;24.70;75.70
41876;DHT22;27555;50.808;4.402;2023-06-01T13:52:49;24.40;76.10
41876;DHT22;27555;50.808;4.402;2023-06-01T13:55:15;24.40;77.10
41876;DHT22;27555;50.808;4.402;2023-06-01T13:57:41;24.40;76.50
41876;DHT22;27555;50.808;4.402;2023-06-01T14:00:08;24.40;76.00
41876;DHT22;27555;50.808;4.402;2023-06-01T14:02:35;24.20;76.50
41876;DHT22;27555;50.808;4.402;2023-06-01T14:05:01;24.30;76.70
41876;DHT22;27555;50.808;4.402;2023-06-01T14:07:27;24.30;76.10
41876;DHT22;27555;50.808;4.402;2023-06-01T14:09:52;24.40;75.40
41876;DHT22;27555;50.808;4.402;2023-06-01T14:12:18;24.30;75.50
41876;DHT22;27555;50.808;4.402;2023-06-01T14:14:44;24.60;75.10
41876;DHT22;27555;50.808;4.402;2023-06-01T14:17:09;24.60;74.20
41876;DHT22;27555;50.808;4.402;2023-06-01T14:19:35;24.60;74.60
41876;DHT22;27555;50.808;4.402;2023-06-01T14:22:01;24.40;76.00
41876;DHT22;27555;50.808;4.402;2023-06-01T14:24:26;24.20;77.10
41876;DHT22;27555;50.808;4.402;2023-06-01T14:26:52;24.10;77.30
41876;DHT22;27555;50.808;4.402;2023-06-01T14:29:18;24.10;77.90
41876;DHT22;27555;50.808;4.402;2023-06-01T14:31:43;24.20;78.20
41876;DHT22;27555;50.808;4.402;2023-06-01T14:34:09;24.30;76.30
41876;DHT22;27555;50.808;4.402;2023-06-01T14:36:35;24.30;76.60
41876;DHT22;27555;50.808;4.402;2023-06-01T14:39:01;24.30;75.30
41876;DHT22;27555;50.808;4.402;2023-06-01T14:41:27;24.30;75.90
41876;DHT22;27555;50.808;4.402;2023-06-01T14:43:52;24.40;75.30
41876;DHT22;27555;50.808;4.402;2023-06-01T14:46:18;24.20;75.90
41876;DHT22;27555;50.808;4.402;2023-06-01T14:48:46;24.00;75.40
41876;DHT22;27555;50.808;4.402;2023-06-01T14:51:11;24.10;75.20
41876;DHT22;27555;50.808;4.402;2023-06-01T14:53:37;24.00;75.00
41876;DHT22;27555;50.808;4.402;2023-06-01T14:56:06;23.90;75.70
41876;DHT22;27555;50.808;4.402;2023-06-01T14:58:32;23.90;76.40
41876;DHT22;27555;50.808;4.402;2023-06-01T15:00:57;24.00;76.50
41876;DHT22;27555;50.808;4.402;2023-06-01T15:03:24;24.00;76.30
41876;DHT22;27555;50.808;4.402;2023-06-01T15:05:49;23.90;76.80
41876;DHT22;27555;50.808;4.402;2023-06-01T15:08:16;24.00;76.20
41876;DHT22;27555;50.808;4.402;2023-06-01T15:10:45;24.00;75.50
41876;DHT22;27555;50.808;4.402;2023-06-01T15:13:10;23.50;75.50
41876;DHT22;27555;50.808;4.402;2023-06-01T15:15:39;23.60;75.00
41876;DHT22;27555;50.808;4.402;2023-06-01T15:18:05;23.70;74.00
41876;DHT22;27555;50.808;4.402;2023-06-01T15:20:30;23.70;72.40
41876;DHT22;27555;50.808;4.402;2023-06-01T15:22:56;23.60;74.10
41876;DHT22;27555;50.808;4.402;2023-06-01T15:25:22;23.50;73.00
41876;DHT22;27555;50.808;4.402;2023-06-01T15:27:47;23.60;73.90
41876;DHT22;27555;50.808;4.402;2023-06-01T15:30:13;23.60;74.50
41876;DHT22;27555;50.808;4.402;2023-06-01T15:32:38;23.50;75.40
41876;DHT22;27555;50.808;4.402;2023-06-01T15:35:04;23.60;75.70
41876;DHT22;27555;50.808;4.402;2023-06-01T15:37:30;23.70;76.50
41876;DHT22;27555;50.808;4.402;2023-06-01T15:39:56;23.70;76.80
41876;DHT22;27555;50.808;4.402;2023-06-01T15:42:21;23.80;76.90
41876;DHT22;27555;50.808;4.402;2023-06-01T15:44:47;23.80;76.60
41876;DHT22;27555;50.808;4.402;2023-06-01T15:47:12;23.60;75.70
41876;DHT22;27555;50.808;4.402;2023-06-01T15:49:42;23.40;76.40
41876;DHT22;27555;50.808;4.402;2023-06-01T15:52:08;23.30;77.50
41876;DHT22;27555;50.808;4.402;2023-06-01T15:54:34;23.30;78.30
41876;DHT22;27555;50.808;4.402;2023-06-01T15:57:01;23.30;78.40
41876;DHT22;27555;50.808;4.402;2023-06-01T15:59:26;23.30;78.70
41876;DHT22;27555;50.808;4.402;2023-06-01T16:01:52;23.40;79.00
41876;DHT22;27555;50.808;4.402;2023-06-01T16:04:18;23.30;78.80
41876;DHT22;27555;50.808;4.402;2023-06-01T16:06:44;23.50;78.70
41876;DHT22;27555;50.808;4.402;2023-06-01T16:09:09;23.70;78.40